Language: 


Des rapports , des résumés tant et plus, au choix de chacun....


Données statistiques de la station
Quotidien Rapport Avril 2, 2017 Unités:  Métrique    Anglais   les deux
« Précédent Jour
Suivant Jour »
Quotidien Hebdomadaire Mensuel Annuel Actuel
  Haut: Bas: Moyen:
Température: 20.2 °C 2.7 °C 10.8 °C
Pt de rosée: 11.9 °C 2.2 °C 6.6 °C
Humidité: 98 % 48 % 78 %
Vitesse du vent: 15.4 km/h 0.0 km/h 3.7 km/h
Rafales: 17.2 km/h - -
Vent:- - West
Pression: 1022.9 hPa 1013.1 hPa -
Précipitation: 0.0 mm    
Historical Graphs
 
 
Données statistiques pour Avril 2, 2017
Heure Température Point de rosée Pression Vent Vitesse du vent Refales Humidité Pluie (taux horaire)
00:04 7.8 °C 4.8 °C 1013.1 hPa Calm   2.6 km/h 81 % 0.0 mm
00:09 7.7 °C 4.6 °C 1014.1 hPa Calm   2.6 km/h 81 % 0.0 mm
00:14 7.3 °C 4.3 °C 1014.1 hPa Calm     81 % 0.0 mm
00:19 7.2 °C 4.3 °C 1014.1 hPa Calm     82 % 0.0 mm
00:24 6.9 °C 3.9 °C 1014.1 hPa Calm     81 % 0.0 mm
00:29 6.8 °C 4.0 °C 1014.1 hPa Calm     82 % 0.0 mm
00:34 6.8 °C 4.2 °C 1014.1 hPa Calm     83 % 0.0 mm
00:39 6.8 °C 4.2 °C 1014.1 hPa Calm     84 % 0.0 mm
00:44 6.9 °C 4.6 °C 1014.1 hPa WNW 2.6 km/h 2.6 km/h 85 % 0.0 mm
00:49 7.2 °C 4.9 °C 1014.1 hPa Calm   4.7 km/h 86 % 0.0 mm
00:54 7.1 °C 4.9 °C 1014.1 hPa Calm   4.7 km/h 86 % 0.0 mm
00:59 6.9 °C 4.8 °C 1014.1 hPa West 2.1 km/h 2.6 km/h 86 % 0.0 mm
01:04 6.9 °C 4.8 °C 1014.1 hPa WNW 1.8 km/h 4.0 km/h 86 % 0.0 mm
01:09 6.8 °C 4.7 °C 1014.1 hPa Calm   4.0 km/h 86 % 0.0 mm
01:14 6.6 °C 4.4 °C 1014.1 hPa Calm   2.1 km/h 86 % 0.0 mm
01:19 6.4 °C 4.2 °C 1014.1 hPa Calm     86 % 0.0 mm
01:24 6.2 °C 4.0 °C 1014.1 hPa Calm     86 % 0.0 mm
01:29 6.1 °C 3.9 °C 1014.1 hPa Calm     86 % 0.0 mm
01:34 6.0 °C 4.0 °C 1014.1 hPa Calm     87 % 0.0 mm
01:39 6.0 °C 4.0 °C 1014.1 hPa Calm     87 % 0.0 mm
01:44 6.0 °C 4.0 °C 1014.1 hPa Calm     87 % 0.0 mm
01:49 5.9 °C 4.1 °C 1014.1 hPa Calm   4.0 km/h 88 % 0.0 mm
01:55 5.9 °C 4.1 °C 1014.1 hPa Calm   4.0 km/h 88 % 0.0 mm
02:00 6.0 °C 4.3 °C 1014.1 hPa Calm   5.0 km/h 89 % 0.0 mm
02:05 6.0 °C 4.3 °C 1014.1 hPa Calm   5.0 km/h 89 % 0.0 mm
02:10 5.8 °C 4.1 °C 1014.1 hPa Calm     89 % 0.0 mm
02:15 5.6 °C 3.9 °C 1014.1 hPa Calm     89 % 0.0 mm
02:20 5.3 °C 3.4 °C 1014.1 hPa Calm     88 % 0.0 mm
02:25 5.3 °C 3.4 °C 1015.1 hPa Calm     88 % 0.0 mm
02:30 5.3 °C 3.6 °C 1015.1 hPa Calm     89 % 0.0 mm
02:35 5.3 °C 3.8 °C 1015.1 hPa Calm     90 % 0.0 mm
02:40 5.4 °C 4.1 °C 1015.1 hPa WNW 2.1 km/h 4.0 km/h 91 % 0.0 mm
02:45 5.5 °C 4.3 °C 1015.1 hPa WNW 1.8 km/h 4.0 km/h 92 % 0.0 mm
02:50 5.6 °C 4.4 °C 1015.1 hPa Calm   4.0 km/h 92 % 0.0 mm
02:55 5.5 °C 4.3 °C 1015.1 hPa Calm   1.8 km/h 92 % 0.0 mm
03:00 5.3 °C 3.9 °C 1015.1 hPa Calm     91 % 0.0 mm
03:05 5.2 °C 3.8 °C 1015.1 hPa Calm     91 % 0.0 mm
03:10 5.0 °C 3.7 °C 1015.1 hPa Calm     91 % 0.0 mm
03:15 4.9 °C 3.6 °C 1015.1 hPa Calm     91 % 0.0 mm
03:20 4.9 °C 3.6 °C 1015.1 hPa Calm     91 % 0.0 mm
03:25 4.6 °C 3.3 °C 1015.1 hPa Calm     91 % 0.0 mm
03:30 4.5 °C 3.2 °C 1015.1 hPa Calm     91 % 0.0 mm
03:35 4.6 °C 3.4 °C 1015.1 hPa Calm     92 % 0.0 mm
03:40 4.6 °C 3.6 °C 1015.1 hPa Calm     93 % 0.0 mm
03:45 4.5 °C 3.5 °C 1015.1 hPa Calm     93 % 0.0 mm
03:50 4.5 °C 3.5 °C 1015.1 hPa Calm     93 % 0.0 mm
03:55 4.4 °C 3.4 °C 1015.1 hPa WNW 3.5 km/h 3.5 km/h 93 % 0.0 mm
04:00 4.3 °C 3.3 °C 1015.1 hPa Calm   5.8 km/h 93 % 0.0 mm
04:05 4.4 °C 3.4 °C 1015.1 hPa Calm   5.8 km/h 93 % 0.0 mm
04:10 4.2 °C 3.2 °C 1015.1 hPa Calm     93 % 0.0 mm
04:15 4.1 °C 3.1 °C 1015.1 hPa Calm     93 % 0.0 mm
04:20 4.0 °C 3.0 °C 1015.1 hPa Calm   3.2 km/h 93 % 0.0 mm
04:25 3.9 °C 2.9 °C 1015.1 hPa Calm   3.2 km/h 93 % 0.0 mm
04:30 3.7 °C 2.7 °C 1015.1 hPa Calm     93 % 0.0 mm
04:35 3.6 °C 2.6 °C 1015.1 hPa Calm     93 % 0.0 mm
04:40 3.6 °C 2.8 °C 1015.1 hPa Calm     94 % 0.0 mm
04:45 3.6 °C 2.7 °C 1015.1 hPa Calm     94 % 0.0 mm
04:50 3.4 °C 2.6 °C 1015.1 hPa Calm     94 % 0.0 mm
04:55 3.4 °C 2.6 °C 1015.1 hPa West 2.1 km/h 2.1 km/h 94 % 0.0 mm
05:00 3.6 °C 2.7 °C 1015.1 hPa Calm   2.1 km/h 94 % 0.0 mm
05:05 3.4 °C 2.7 °C 1015.1 hPa Calm     95 % 0.0 mm
05:10 3.3 °C 2.6 °C 1015.1 hPa Calm     95 % 0.0 mm
05:15 3.3 °C 2.6 °C 1015.1 hPa Calm     95 % 0.0 mm
05:20 3.3 °C 2.6 °C 1015.1 hPa Calm     95 % 0.0 mm
05:25 3.2 °C 2.5 °C 1015.1 hPa Calm     95 % 0.0 mm
05:30 3.1 °C 2.4 °C 1015.1 hPa Calm     95 % 0.0 mm
05:35 3.2 °C 2.5 °C 1015.1 hPa Calm     95 % 0.0 mm
05:40 3.3 °C 2.8 °C 1016.1 hPa Calm     96 % 0.0 mm
05:45 3.3 °C 2.8 °C 1016.1 hPa Calm     96 % 0.0 mm
05:50 3.3 °C 2.8 °C 1016.1 hPa Calm   4.3 km/h 96 % 0.0 mm
05:55 3.2 °C 2.7 °C 1015.1 hPa Calm   4.3 km/h 96 % 0.0 mm
06:00 3.1 °C 2.4 °C 1015.1 hPa Calm     95 % 0.0 mm
06:05 3.1 °C 2.4 °C 1015.1 hPa Calm     95 % 0.0 mm
06:10 3.1 °C 2.4 °C 1015.1 hPa Calm     96 % 0.0 mm
06:15 3.1 °C 2.4 °C 1015.1 hPa Calm     96 % 0.0 mm
06:20 3.1 °C 2.4 °C 1015.1 hPa Calm     96 % 0.0 mm
06:25 2.9 °C 2.4 °C 1016.1 hPa Calm     96 % 0.0 mm
06:30 2.9 °C 2.4 °C 1016.1 hPa Calm     96 % 0.0 mm
06:35 2.9 °C 2.4 °C 1016.1 hPa Calm     96 % 0.0 mm
06:36 2.9 °C 2.4 °C 1016.1 hPa Calm     96 % 0.0 mm
06:41 2.8 °C 2.4 °C 1016.1 hPa Calm     97 % 0.0 mm
06:46 2.7 °C 2.3 °C 1016.1 hPa Calm     97 % 0.0 mm
06:51 2.7 °C 2.3 °C 1016.1 hPa Calm     97 % 0.0 mm
06:56 2.7 °C 2.2 °C 1016.8 hPa Calm     97 % 0.0 mm
07:01 2.7 °C 2.3 °C 1016.8 hPa Calm     97 % 0.0 mm
07:06 2.7 °C 2.3 °C 1016.8 hPa Calm   4.0 km/h 97 % 0.0 mm
07:11 2.9 °C 2.5 °C 1016.8 hPa Calm   4.0 km/h 97 % 0.0 mm
07:16 2.9 °C 2.5 °C 1016.8 hPa Calm   2.6 km/h 97 % 0.0 mm
07:21 2.9 °C 2.5 °C 1016.8 hPa Calm     97 % 0.0 mm
07:26 2.9 °C 2.5 °C 1016.8 hPa Calm     97 % 0.0 mm
07:31 2.8 °C 2.6 °C 1016.8 hPa Calm     98 % 0.0 mm
07:37 2.7 °C 2.3 °C 1016.8 hPa Calm     97 % 0.0 mm
07:42 2.7 °C 2.3 °C 1016.8 hPa Calm     97 % 0.0 mm
07:47 2.7 °C 2.4 °C 1016.8 hPa Calm     98 % 0.0 mm
07:52 2.7 °C 2.4 °C 1016.8 hPa Calm     98 % 0.0 mm
07:57 2.9 °C 2.7 °C 1016.8 hPa Calm     98 % 0.0 mm
08:02 3.1 °C 2.8 °C 1016.8 hPa Calm     98 % 0.0 mm
08:07 3.3 °C 3.1 °C 1016.8 hPa Calm     98 % 0.0 mm
08:12 3.7 °C 3.4 °C 1016.8 hPa Calm     98 % 0.0 mm
08:17 4.4 °C 4.1 °C 1016.8 hPa Calm     98 % 0.0 mm
08:18 4.5 °C 4.2 °C 1016.8 hPa Calm     98 % 0.0 mm
08:23 5.1 °C 4.8 °C 1018.2 hPa Calm     98 % 0.0 mm
08:28 5.3 °C 5.0 °C 1018.2 hPa Calm     98 % 0.0 mm
08:33 5.5 °C 5.2 °C 1018.2 hPa Calm     98 % 0.0 mm
08:38 5.7 °C 5.4 °C 1018.2 hPa Calm     98 % 0.0 mm
08:43 6.0 °C 5.7 °C 1018.2 hPa Calm     98 % 0.0 mm
08:48 6.3 °C 6.0 °C 1018.2 hPa West 3.2 km/h 4.7 km/h 98 % 0.0 mm
08:53 6.6 °C 6.3 °C 1018.2 hPa Calm   4.7 km/h 98 % 0.0 mm
08:58 6.9 °C 6.7 °C 1018.2 hPa West 8.7 km/h 8.7 km/h 98 % 0.0 mm
09:03 7.3 °C 6.9 °C 1018.2 hPa West 4.0 km/h 8.7 km/h 98 % 0.0 mm
09:08 7.6 °C 7.3 °C 1018.8 hPa WSW 7.9 km/h 9.7 km/h 98 % 0.0 mm
09:13 7.8 °C 7.6 °C 1018.8 hPa West 8.7 km/h 9.7 km/h 98 % 0.0 mm
09:18 8.1 °C 7.8 °C 1018.8 hPa WSW 8.7 km/h 9.7 km/h 98 % 0.0 mm
09:23 8.4 °C 8.1 °C 1018.8 hPa Calm   9.7 km/h 98 % 0.0 mm
09:28 8.7 °C 8.4 °C 1018.8 hPa West 7.9 km/h 10.1 km/h 98 % 0.0 mm
09:33 9.0 °C 8.6 °C 1018.8 hPa West 4.7 km/h 10.1 km/h 97 % 0.0 mm
09:38 9.3 °C 8.8 °C 1018.8 hPa West 6.9 km/h 10.1 km/h 97 % 0.0 mm
09:43 9.7 °C 9.2 °C 1018.8 hPa West 5.5 km/h 10.1 km/h 97 % 0.0 mm
09:48 9.9 °C 9.3 °C 1018.8 hPa Calm   9.3 km/h 96 % 0.0 mm
09:53 10.2 °C 9.6 °C 1018.8 hPa WSW 6.1 km/h 6.1 km/h 96 % 0.0 mm
09:58 10.7 °C 10.1 °C 1018.8 hPa West 5.5 km/h 6.1 km/h 96 % 0.0 mm
10:03 10.9 °C 10.1 °C 1018.8 hPa WSW 2.6 km/h 6.1 km/h 95 % 0.0 mm
10:08 11.3 °C 10.5 °C 1018.8 hPa Calm   5.0 km/h 95 % 0.0 mm
10:13 11.7 °C 10.7 °C 1018.8 hPa Calm   2.6 km/h 94 % 0.0 mm
10:18 11.9 °C 10.8 °C 1018.8 hPa SSW 4.3 km/h 5.8 km/h 93 % 0.0 mm
10:23 12.4 °C 11.3 °C 1018.8 hPa South 3.5 km/h 5.8 km/h 93 % 0.0 mm
10:28 12.7 °C 11.3 °C 1018.8 hPa WSW 5.0 km/h 6.9 km/h 91 % 0.0 mm
10:33 13.1 °C 11.4 °C 1018.8 hPa Calm   6.9 km/h 90 % 0.0 mm
10:38 13.3 °C 11.6 °C 1018.8 hPa WNW 5.0 km/h 7.9 km/h 89 % 0.0 mm
10:43 13.5 °C 11.2 °C 1018.8 hPa Calm   7.9 km/h 86 % 0.0 mm
10:48 14.0 °C 11.7 °C 1018.8 hPa Calm   5.0 km/h 86 % 0.0 mm
10:53 14.3 °C 11.8 °C 1019.9 hPa Calm   6.1 km/h 85 % 0.0 mm
10:58 14.6 °C 11.7 °C 1019.9 hPa Calm   8.7 km/h 83 % 0.0 mm
11:03 14.7 °C 11.3 °C 1019.9 hPa North 6.9 km/h 9.3 km/h 80 % 0.0 mm
11:08 15.1 °C 11.7 °C 1019.9 hPa Calm   9.3 km/h 80 % 0.0 mm
11:13 15.6 °C 11.8 °C 1019.9 hPa Calm   6.9 km/h 78 % 0.0 mm
11:18 15.8 °C 11.9 °C 1019.9 hPa NE 5.5 km/h 6.4 km/h 78 % 0.0 mm
11:23 15.5 °C 11.3 °C 1019.9 hPa NE 10.1 km/h 12.6 km/h 76 % 0.0 mm
11:28 15.4 °C 11.2 °C 1019.9 hPa NNW 2.1 km/h 12.6 km/h 76 % 0.0 mm
11:33 15.3 °C 10.9 °C 1019.9 hPa NNE 9.0 km/h 9.3 km/h 75 % 0.0 mm
11:38 15.5 °C 11.1 °C 1020.9 hPa North 6.4 km/h 10.1 km/h 75 % 0.0 mm
11:43 15.6 °C 10.9 °C 1020.9 hPa North 6.4 km/h 10.1 km/h 74 % 0.0 mm
11:48 15.6 °C 10.8 °C 1020.9 hPa NNW 7.9 km/h 9.7 km/h 73 % 0.0 mm
11:53 15.6 °C 10.8 °C 1020.9 hPa NNE 7.6 km/h 10.1 km/h 73 % 0.0 mm
11:58 15.6 °C 10.8 °C 1020.9 hPa North 9.0 km/h 10.1 km/h 73 % 0.0 mm
12:03 15.6 °C 10.8 °C 1020.9 hPa NNE 9.7 km/h 10.1 km/h 73 % 0.0 mm
12:08 15.8 °C 10.9 °C 1020.9 hPa North 9.7 km/h 10.1 km/h 73 % 0.0 mm
12:13 15.9 °C 11.1 °C 1020.9 hPa NE 6.1 km/h 10.1 km/h 73 % 0.0 mm
12:18 15.6 °C 10.6 °C 1020.9 hPa NNE 9.3 km/h 13.0 km/h 72 % 0.0 mm
12:23 15.8 °C 10.7 °C 1021.9 hPa North 5.5 km/h 13.0 km/h 72 % 0.0 mm
12:28 16.3 °C 11.2 °C 1021.9 hPa North 4.7 km/h 11.9 km/h 72 % 0.0 mm
12:33 16.4 °C 11.0 °C 1021.9 hPa Calm   11.9 km/h 70 % 0.0 mm
12:38 16.8 °C 11.1 °C 1020.9 hPa NNE 3.5 km/h 9.3 km/h 69 % 0.0 mm
12:43 16.9 °C 11.2 °C 1020.9 hPa West 4.7 km/h 9.3 km/h 69 % 0.0 mm
12:48 16.9 °C 11.0 °C 1020.9 hPa North 10.8 km/h 13.0 km/h 68 % 0.0 mm
12:53 16.8 °C 10.8 °C 1020.9 hPa NNE 5.0 km/h 14.0 km/h 68 % 0.0 mm
12:58 16.4 °C 10.6 °C 1020.9 hPa North 6.9 km/h 14.0 km/h 68 % 0.0 mm
13:03 16.7 °C 10.5 °C 1020.9 hPa North 7.9 km/h 12.2 km/h 67 % 0.0 mm
13:08 16.4 °C 10.3 °C 1020.9 hPa NE 6.4 km/h 12.2 km/h 67 % 0.0 mm
13:13 16.8 °C 10.4 °C 1020.9 hPa Calm   12.2 km/h 66 % 0.0 mm
13:18 16.8 °C 10.7 °C 1020.9 hPa NNE 7.9 km/h 11.9 km/h 67 % 0.0 mm
13:24 17.2 °C 11.1 °C 1020.9 hPa NE 7.6 km/h 11.9 km/h 67 % 0.0 mm
13:29 17.2 °C 10.5 °C 1020.9 hPa NW 9.7 km/h 12.6 km/h 65 % 0.0 mm
13:34 17.1 °C 10.4 °C 1020.9 hPa North 9.0 km/h 12.6 km/h 65 % 0.0 mm
13:39 17.7 °C 11.0 °C 1020.9 hPa Calm   10.1 km/h 65 % 0.0 mm
13:44 17.7 °C 11.0 °C 1020.9 hPa North 6.4 km/h 6.9 km/h 65 % 0.0 mm
13:49 17.6 °C 10.9 °C 1020.9 hPa Calm   12.2 km/h 65 % 0.0 mm
13:54 17.7 °C 10.5 °C 1020.9 hPa North 3.2 km/h 12.2 km/h 63 % 0.0 mm
13:59 17.8 °C 10.9 °C 1020.9 hPa North 6.4 km/h 10.5 km/h 64 % 0.0 mm
14:04 18.1 °C 10.9 °C 1020.9 hPa NNE 10.1 km/h 11.6 km/h 63 % 0.0 mm
14:09 17.6 °C 10.2 °C 1020.9 hPa West 3.5 km/h 12.2 km/h 62 % 0.0 mm
14:14 17.7 °C 10.3 °C 1020.9 hPa WNW 3.5 km/h 12.2 km/h 62 % 0.0 mm
14:19 17.7 °C 10.3 °C 1020.9 hPa NNW 1.8 km/h 9.7 km/h 62 % 0.0 mm
14:24 16.8 °C 9.2 °C 1020.9 hPa Calm   9.7 km/h 61 % 0.0 mm
14:29 17.2 °C 9.8 °C 1020.9 hPa North 5.8 km/h 12.2 km/h 62 % 0.0 mm
14:34 17.7 °C 10.3 °C 1020.9 hPa Calm   12.2 km/h 62 % 0.0 mm
14:39 17.7 °C 10.0 °C 1020.9 hPa NW 4.3 km/h 9.7 km/h 61 % 0.0 mm
14:44 18.1 °C 10.2 °C 1020.9 hPa North 4.3 km/h 13.7 km/h 60 % 0.0 mm
14:49 18.1 °C 10.0 °C 1020.9 hPa NNE 6.1 km/h 13.7 km/h 59 % 0.0 mm
14:54 17.8 °C 9.2 °C 1020.9 hPa Calm   11.1 km/h 57 % 0.0 mm
14:59 18.9 °C 9.9 °C 1020.9 hPa North 6.1 km/h 10.1 km/h 56 % 0.0 mm
15:04 18.6 °C 9.1 °C 1020.9 hPa North 5.5 km/h 11.6 km/h 54 % 0.0 mm
15:09 18.8 °C 9.6 °C 1019.9 hPa NNE 9.7 km/h 12.2 km/h 55 % 0.0 mm
15:14 17.8 °C 8.4 °C 1019.9 hPa North 6.4 km/h 13.0 km/h 54 % 0.0 mm
15:19 17.2 °C 7.8 °C 1019.9 hPa North 9.7 km/h 13.0 km/h 54 % 0.0 mm
15:24 17.8 °C 8.7 °C 1020.9 hPa NE 13.7 km/h 13.7 km/h 55 % 0.0 mm
15:29 17.6 °C 8.1 °C 1020.9 hPa North 6.4 km/h 13.7 km/h 54 % 0.0 mm
15:32 18.1 °C 8.3 °C 1020.9 hPa NNW 8.7 km/h 13.7 km/h 53 % 0.0 mm
15:37 17.6 °C 8.1 °C 1020.9 hPa WNW 3.5 km/h 10.5 km/h 54 % 0.0 mm
15:42 18.2 °C 9.1 °C 1020.9 hPa Calm   10.1 km/h 55 % 0.0 mm
15:47 18.8 °C 9.3 °C 1020.9 hPa NE 5.5 km/h 7.6 km/h 54 % 0.0 mm
15:52 19.2 °C 9.7 °C 1020.9 hPa North 1.8 km/h 9.7 km/h 54 % 0.0 mm
15:57 19.7 °C 9.8 °C 1020.9 hPa North 10.1 km/h 10.1 km/h 53 % 0.0 mm
16:02 19.8 °C 9.1 °C 1020.9 hPa North 9.0 km/h 12.6 km/h 50 % 0.0 mm
16:07 20.2 °C 9.4 °C 1020.9 hPa North 7.9 km/h 12.6 km/h 50 % 0.0 mm
16:12 19.8 °C 8.4 °C 1020.9 hPa North 14.0 km/h 14.3 km/h 48 % 0.0 mm
16:17 19.2 °C 8.2 °C 1020.9 hPa North 10.1 km/h 14.3 km/h 49 % 0.0 mm
16:22 17.8 °C 6.9 °C 1020.9 hPa North 5.5 km/h 13.7 km/h 49 % 0.0 mm
16:27 17.8 °C 7.3 °C 1020.9 hPa NNW 5.5 km/h 13.7 km/h 50 % 0.0 mm
16:32 18.4 °C 7.8 °C 1020.9 hPa North 7.9 km/h 9.7 km/h 50 % 0.0 mm
16:37 18.7 °C 8.1 °C 1020.9 hPa North 9.3 km/h 12.2 km/h 50 % 0.0 mm
16:42 18.5 °C 7.6 °C 1020.9 hPa North 7.9 km/h 12.2 km/h 49 % 0.0 mm
16:47 18.7 °C 8.1 °C 1020.9 hPa NNW 13.0 km/h 13.0 km/h 50 % 0.0 mm
16:52 18.4 °C 8.1 °C 1020.9 hPa North 9.0 km/h 13.0 km/h 51 % 0.0 mm
16:57 18.5 °C 8.5 °C 1020.9 hPa North 12.2 km/h 16.3 km/h 52 % 0.0 mm
17:03 18.4 °C 8.1 °C 1020.9 hPa NNE 9.3 km/h 16.3 km/h 51 % 0.0 mm
17:08 18.2 °C 7.6 °C 1021.9 hPa North 7.6 km/h 16.6 km/h 50 % 0.0 mm
17:12 18.1 °C 7.6 °C 1021.9 hPa WNW 13.7 km/h 17.2 km/h 50 % 0.0 mm
17:17 18.1 °C 7.6 °C 1021.9 hPa North 5.5 km/h 17.2 km/h 50 % 0.0 mm
17:23 18.2 °C 7.6 °C 1021.9 hPa North 10.1 km/h 14.0 km/h 50 % 0.0 mm
17:28 18.4 °C 7.8 °C 1021.9 hPa NNE 14.0 km/h 14.0 km/h 50 % 0.0 mm
17:33 17.9 °C 7.1 °C 1021.9 hPa NW 9.3 km/h 15.4 km/h 49 % 0.0 mm
17:38 17.9 °C 7.1 °C 1021.9 hPa NNW 9.3 km/h 15.4 km/h 49 % 0.0 mm
17:43 17.6 °C 6.7 °C 1021.9 hPa NNE 9.7 km/h 14.3 km/h 49 % 0.0 mm
17:48 17.2 °C 6.4 °C 1021.9 hPa NW 12.2 km/h 16.3 km/h 49 % 0.0 mm
17:53 17.2 °C 6.3 °C 1021.9 hPa NE 10.5 km/h 16.3 km/h 49 % 0.0 mm
17:58 17.1 °C 6.6 °C 1021.9 hPa North 6.9 km/h 15.4 km/h 50 % 0.0 mm
18:03 17.2 °C 6.9 °C 1021.9 hPa North 9.3 km/h 16.3 km/h 51 % 0.0 mm
18:08 16.9 °C 6.7 °C 1021.9 hPa NNE 15.4 km/h 16.3 km/h 51 % 0.0 mm
18:13 16.8 °C 6.8 °C 1021.9 hPa NNE 10.5 km/h 16.6 km/h 52 % 0.0 mm
18:18 16.8 °C 6.8 °C 1021.9 hPa North 5.8 km/h 16.6 km/h 52 % 0.0 mm
18:23 16.8 °C 6.9 °C 1021.9 hPa North 6.1 km/h 13.0 km/h 52 % 0.0 mm
18:28 16.6 °C 6.7 °C 1021.9 hPa NNE 9.7 km/h 12.6 km/h 52 % 0.0 mm
18:33 16.4 °C 6.5 °C 1021.9 hPa NNW 9.7 km/h 15.8 km/h 52 % 0.0 mm
18:38 16.3 °C 6.7 °C 1021.9 hPa North 10.5 km/h 15.8 km/h 53 % 0.0 mm
18:43 16.1 °C 6.5 °C 1021.9 hPa NNE 10.1 km/h 15.8 km/h 53 % 0.0 mm
18:48 16.1 °C 6.8 °C 1021.9 hPa NNW 12.2 km/h 14.0 km/h 54 % 0.0 mm
18:53 15.9 °C 6.6 °C 1022.9 hPa NNW 10.1 km/h 13.0 km/h 54 % 0.0 mm
18:58 15.6 °C 6.6 °C 1022.9 hPa North 4.7 km/h 13.7 km/h 55 % 0.0 mm
19:03 15.4 °C 6.7 °C 1022.9 hPa North 8.7 km/h 13.7 km/h 56 % 0.0 mm
19:08 15.3 °C 6.8 °C 1022.9 hPa North 5.5 km/h 12.2 km/h 57 % 0.0 mm
19:13 15.1 °C 6.6 °C 1022.9 hPa NE 9.0 km/h 13.7 km/h 57 % 0.0 mm
19:18 14.9 °C 6.7 °C 1022.9 hPa North 4.7 km/h 13.7 km/h 58 % 0.0 mm
19:23 14.9 °C 6.7 °C 1022.9 hPa NE 10.5 km/h 10.5 km/h 58 % 0.0 mm
19:28 14.6 °C 6.7 °C 1022.9 hPa North 9.7 km/h 13.7 km/h 59 % 0.0 mm
19:33 14.4 °C 6.7 °C 1022.9 hPa ENE 9.0 km/h 13.7 km/h 60 % 0.0 mm
19:38 14.2 °C 6.8 °C 1022.9 hPa NNW 10.5 km/h 13.0 km/h 61 % 0.0 mm
19:43 14.0 °C 6.6 °C 1022.9 hPa NNE 6.4 km/h 13.0 km/h 61 % 0.0 mm
19:48 13.7 °C 6.6 °C 1022.9 hPa North 4.7 km/h 12.6 km/h 62 % 0.0 mm
19:53 13.4 °C 6.7 °C 1022.9 hPa North 5.5 km/h 12.6 km/h 64 % 0.0 mm
19:58 13.2 °C 6.8 °C 1022.9 hPa North 5.0 km/h 12.6 km/h 65 % 0.0 mm
20:03 13.1 °C 7.1 °C 1022.9 hPa North 5.0 km/h 11.9 km/h 67 % 0.0 mm
20:08 12.8 °C 6.6 °C 1022.9 hPa North 5.0 km/h 11.9 km/h 66 % 0.0 mm
20:13 12.6 °C 6.8 °C 1022.9 hPa North 3.2 km/h 8.7 km/h 68 % 0.0 mm
20:18 12.3 °C 6.6 °C 1022.9 hPa NW 6.1 km/h 8.7 km/h 68 % 0.0 mm
20:23 12.2 °C 6.6 °C 1022.9 hPa NNW 2.6 km/h 9.3 km/h 69 % 0.0 mm
20:28 11.9 °C 6.7 °C 1022.9 hPa North 6.9 km/h 9.7 km/h 70 % 0.0 mm
20:33 11.7 °C 6.6 °C 1022.9 hPa North 4.0 km/h 9.7 km/h 71 % 0.0 mm
20:38 11.6 °C 6.5 °C 1022.9 hPa North 2.1 km/h 9.0 km/h 71 % 0.0 mm
Le Gheer Warneton
Courtoisie de Weather Underground - 2 mb

Mise a jour : 17-12-17 07:17:12
Généré par Cumulus 1.9.4 (1099)